»·PEaware :: N6AS KSNA-KCNO

N6AS :: KSNA-KCNO

FLIGHT INFORMATION

Flight Status: Arrived
Operator: Privately registered:
United States
More flights under this callsign
Pilot: Adam S. (8156)
Aircraft: MOONEY M-20K/M ENCORE BRAVO
(M20T)
More flights by this aircraft type
Origin: KSNA John Wayne-Orange Co
United States
Destination: KCNO Chino
United States
More flights between these airports :: More routes between these airports
Route: +SLI V8 PDZ
File this flight plan on PilotEdge
Remarks:
Altitude:
(Current/Filed)
3,000ft
Speed:
(Current/Filed)
160kts
Departed: 11-Oct-18 12:01 PM
Arrived: 11-Oct-18 12:51 PM
Distance/Time
Traveled:
21nm/0:50
Distance/Time
To Go:
Arrived

Flight Plot

Page will automatically refresh every two minutes.


Map Options




Map Legend


Flown Route
Filed Route
Departure Airport
Arrival Airport
Navaid (VOR, NDB)
Fix

Horizontal Profiles

Position Reports

Time Latitude Longitude Heading Altitude Ground
Speed
11-Oct-18 11:43 33.671517 -117.867200 26 58ft 0kts
11-Oct-18 11:44 33.671517 -117.867200 26 58ft 0kts
11-Oct-18 11:45 33.671517 -117.867200 26 58ft 0kts
11-Oct-18 11:46 33.671517 -117.867200 26 58ft 0kts
11-Oct-18 11:47 33.671517 -117.867200 26 58ft 0kts
11-Oct-18 11:48 33.671517 -117.867200 26 58ft 0kts
11-Oct-18 11:49 33.671517 -117.867200 26 58ft 0kts
11-Oct-18 11:50 33.671517 -117.867200 26 58ft 0kts
11-Oct-18 11:51 33.671517 -117.867200 26 58ft 0kts
11-Oct-18 11:52 33.671517 -117.867200 26 58ft 0kts
11-Oct-18 11:53 33.671517 -117.867200 26 58ft 0kts
11-Oct-18 11:54 33.671517 -117.867200 26 58ft 0kts
11-Oct-18 11:55 33.671517 -117.867200 26 58ft 0kts
11-Oct-18 11:56 33.671517 -117.867200 26 58ft 0kts
11-Oct-18 11:57 33.671517 -117.867200 26 58ft 0kts
11-Oct-18 11:58 33.672751 -117.867455 22 58ft 10kts
11-Oct-18 11:59 33.675684 -117.866076 27 58ft 19kts
11-Oct-18 12:00 33.679539 -117.863643 28 58ft 7kts
11-Oct-18 12:01 33.679959 -117.863612 294 58ft 0kts
11-Oct-18 12:02 33.679959 -117.863612 294 58ft 0kts
11-Oct-18 12:03 33.668471 -117.871611 209 270ft 111kts
11-Oct-18 12:04 33.649492 -117.900862 242 1838ft 121kts
11-Oct-18 12:05 33.629389 -117.945073 240 1995ft 174kts
11-Oct-18 12:06 33.606254 -117.992631 221 1990ft 158kts
11-Oct-18 12:07 33.566872 -118.009430 232 1981ft 151kts
11-Oct-18 12:08 33.584918 -118.022643 21 2696ft 108kts
11-Oct-18 12:09 33.610299 -118.009740 25 3391ft 94kts
11-Oct-18 12:10 33.634090 -117.997609 23 4123ft 96kts
11-Oct-18 12:19 33.671517 -117.867200 26 58ft 0kts
11-Oct-18 12:20 33.671517 -117.867200 26 58ft 0kts
11-Oct-18 12:21 33.671517 -117.867200 26 58ft 0kts
11-Oct-18 12:22 33.672453 -117.867522 2 58ft 10kts
11-Oct-18 12:23 33.675897 -117.865960 28 58ft 14kts
11-Oct-18 12:24 33.679742 -117.863543 11 58ft 6kts
11-Oct-18 12:25 33.679948 -117.863636 298 58ft 0kts
11-Oct-18 12:26 33.676331 -117.866594 209 58ft 89kts
11-Oct-18 12:27 33.656217 -117.893727 240 968ft 118kts
11-Oct-18 12:28 33.639277 -117.927532 240 1949ft 126kts
11-Oct-18 12:29 33.637619 -117.965599 342 2421ft 131kts
11-Oct-18 12:30 33.677422 -117.979338 332 3265ft 167kts
11-Oct-18 12:31 33.718826 -118.008609 329 4036ft 178kts
11-Oct-18 12:32 33.761641 -118.039375 329 4834ft 181kts
11-Oct-18 12:33 33.795684 -118.011802 76 4970ft 204kts
11-Oct-18 12:34 33.811314 -117.947244 71 4965ft 198kts
11-Oct-18 12:35 33.827417 -117.884901 71 4969ft 194kts
11-Oct-18 12:36 33.843403 -117.822932 71 4967ft 194kts
11-Oct-18 12:37 33.858950 -117.762512 72 4994ft 182kts
11-Oct-18 12:38 33.873556 -117.705617 72 4994ft 176kts
11-Oct-18 12:39 33.887994 -117.649263 72 4995ft 176kts
11-Oct-18 12:40 33.902298 -117.593323 72 4989ft 176kts
11-Oct-18 12:41 33.919761 -117.538612 64 5066ft 169kts
11-Oct-18 12:42 33.896940 -117.493723 103 5103ft 170kts
11-Oct-18 12:43 33.910006 -117.438997 67 4946ft 181kts
11-Oct-18 12:44 33.928414 -117.380346 67 4210ft 188kts
11-Oct-18 12:45 33.946424 -117.325627 58 4020ft 173kts
11-Oct-18 12:46 33.979100 -117.338708 301 3841ft 171kts
11-Oct-18 12:47 33.980426 -117.391235 261 3333ft 176kts
11-Oct-18 12:48 33.977958 -117.449570 267 3005ft 173kts
11-Oct-18 12:49 33.976715 -117.504611 268 2728ft 154kts
11-Oct-18 12:50 33.977069 -117.545221 270 1985ft 106kts
11-Oct-18 12:51 33.976532 -117.579968 268 1482ft 104kts
11-Oct-18 12:52 33.975996 -117.611959 270 964ft 84kts
11-Oct-18 12:53 33.975889 -117.637482 268 628ft 33kts
11-Oct-18 12:54 33.976495 -117.639214 359 628ft 0kts

Navigation Log

Ident Type
1. KSNA Airport
2. SLI Navaid
3. AHEIM Fix
4. OLLIE Fix
5. POXKU Fix
6. EBITE Fix
7. PDZ Navaid
8. KCNO Airport